createdAt,value
2023-04-15T00:00:57.670Z,9.681214
2023-04-15T00:01:57.745Z,9.681216
2023-04-15T00:02:57.824Z,9.681199
2023-04-15T00:03:57.729Z,9.681164
2023-04-15T00:04:57.654Z,9.681160
2023-04-15T00:05:57.695Z,9.681133
2023-04-15T00:06:57.629Z,9.681070
2023-04-15T00:07:57.649Z,9.681219
2023-04-15T00:08:57.714Z,9.681120
2023-04-15T00:09:57.647Z,9.681128
2023-04-15T00:10:57.607Z,9.681083
2023-04-15T00:11:57.613Z,9.681187
2023-04-15T00:12:57.592Z,9.681177
2023-04-15T00:13:57.608Z,9.681138
2023-04-15T00:14:57.606Z,9.681089
2023-04-15T00:15:57.652Z,9.681128
2023-04-15T00:16:57.688Z,9.681126
2023-04-15T00:17:57.614Z,9.681158
2023-04-15T00:18:57.634Z,9.681094
2023-04-15T00:19:57.585Z,9.681159
2023-04-15T00:20:57.559Z,9.681110
2023-04-15T00:21:57.590Z,9.681068
2023-04-15T00:22:57.543Z,9.681020
2023-04-15T00:23:57.587Z,9.681004
2023-04-15T00:24:57.526Z,9.681010
2023-04-15T00:25:57.553Z,9.681121
2023-04-15T00:26:57.523Z,9.681092
2023-04-15T00:27:57.614Z,9.681124
2023-04-15T00:28:57.555Z,9.681129
2023-04-15T00:29:57.532Z,9.681046
2023-04-15T00:30:57.604Z,9.681080
2023-04-15T00:31:57.519Z,9.681009
2023-04-15T00:32:57.503Z,9.681103
2023-04-15T00:33:57.491Z,9.681026
2023-04-15T00:34:57.479Z,9.681048
2023-04-15T00:35:57.493Z,9.681058
2023-04-15T00:36:57.472Z,9.681103
2023-04-15T00:37:57.499Z,9.681069
2023-04-15T00:38:57.549Z,9.681096
2023-04-15T00:39:57.463Z,9.681023
2023-04-15T00:40:57.450Z,9.681062
2023-04-15T00:41:57.458Z,9.681069
2023-04-15T00:42:57.429Z,9.681170
2023-04-15T00:43:57.497Z,9.681081
2023-04-15T00:44:57.433Z,9.681100
2023-04-15T00:45:57.472Z,9.681138
2023-04-15T00:46:57.454Z,9.681066
2023-04-15T00:47:57.461Z,9.681104
2023-04-15T00:48:57.510Z,9.681157
2023-04-15T00:49:57.428Z,9.681092
2023-04-15T00:50:57.413Z,9.681063
2023-04-15T00:51:57.423Z,9.681128
2023-04-15T00:52:57.377Z,9.681087
2023-04-15T00:53:57.408Z,9.681097
2023-04-15T00:54:57.380Z,9.681103
2023-04-15T00:55:57.395Z,9.681021
2023-04-15T00:56:57.352Z,9.681058
2023-04-15T00:57:57.372Z,9.681075
2023-04-15T00:58:57.349Z,9.681060
2023-04-15T00:59:57.351Z,9.681146
2023-04-15T01:00:57.365Z,9.681166
2023-04-15T01:01:57.439Z,9.681048
2023-04-15T01:02:57.534Z,9.681096
2023-04-15T01:03:57.426Z,9.681121
2023-04-15T01:04:57.315Z,9.681036
2023-04-15T01:05:57.325Z,9.681091
2023-04-15T01:06:57.311Z,9.680999
2023-04-15T01:07:57.346Z,9.681024
2023-04-15T01:08:57.304Z,9.681071
2023-04-15T01:09:57.310Z,9.681037
2023-04-15T01:10:57.273Z,9.681044
2023-04-15T01:11:57.292Z,9.681072
2023-04-15T01:12:57.266Z,9.681057
2023-04-15T01:13:57.306Z,9.681060
2023-04-15T01:14:57.286Z,9.681029
2023-04-15T01:15:57.315Z,9.681022
2023-04-15T01:16:57.240Z,9.681032
2023-04-15T01:17:57.283Z,9.681000
2023-04-15T01:18:57.244Z,9.680999
2023-04-15T01:19:57.256Z,9.681032
2023-04-15T01:20:57.271Z,9.681023
2023-04-15T01:21:57.232Z,9.681013
2023-04-15T01:22:57.206Z,9.680994
2023-04-15T01:23:57.241Z,9.680983
2023-04-15T01:24:57.256Z,9.681010
2023-04-15T01:25:57.204Z,9.680994
2023-04-15T01:26:57.195Z,9.681015
2023-04-15T01:27:57.189Z,9.681036
2023-04-15T01:28:57.178Z,9.681038
2023-04-15T01:29:57.203Z,9.681035
2023-04-15T01:30:57.198Z,9.680957
2023-04-15T01:31:57.303Z,9.680931
2023-04-15T01:32:57.234Z,9.680950
2023-04-15T01:33:57.217Z,9.680999
2023-04-15T01:34:57.163Z,9.681007
2023-04-15T01:35:57.150Z,9.680944
2023-04-15T01:36:57.196Z,9.680926
2023-04-15T01:37:57.149Z,9.681049
2023-04-15T01:38:57.163Z,9.681026
2023-04-15T01:39:57.143Z,9.680974
2023-04-15T01:40:57.122Z,9.681004
2023-04-15T01:41:57.203Z,9.680912
2023-04-15T01:42:57.134Z,9.681002
2023-04-15T01:43:57.122Z,9.680983
2023-04-15T01:44:57.122Z,9.680943
2023-04-15T01:45:57.115Z,9.681021
2023-04-15T01:46:57.157Z,9.680998
2023-04-15T01:47:57.160Z,9.681052
2023-04-15T01:48:57.159Z,9.681071
2023-04-15T01:49:57.132Z,9.681000
2023-04-15T01:50:57.072Z,9.681074
2023-04-15T01:51:57.094Z,9.681052
2023-04-15T01:52:57.071Z,9.681005
2023-04-15T01:53:57.077Z,9.681017
2023-04-15T01:54:57.119Z,9.681005
2023-04-15T01:55:57.078Z,9.680935
2023-04-15T01:56:57.077Z,9.680998
2023-04-15T01:57:57.078Z,9.680988
2023-04-15T01:58:57.044Z,9.681030
2023-04-15T01:59:57.141Z,9.680962
2023-04-15T02:00:57.033Z,9.680938
2023-04-15T02:01:57.069Z,9.680943
2023-04-15T02:02:57.047Z,9.680964
2023-04-15T02:03:57.115Z,9.680964
2023-04-15T02:04:57.035Z,9.680918
2023-04-15T02:05:57.029Z,9.680964
2023-04-15T02:06:56.978Z,9.680948
2023-04-15T02:07:56.995Z,9.681014
2023-04-15T02:08:56.968Z,9.680984
2023-04-15T02:09:57.000Z,9.681027
2023-04-15T02:10:56.962Z,9.680928
2023-04-15T02:11:56.994Z,9.681007
2023-04-15T02:12:56.962Z,9.680972
2023-04-15T02:13:56.976Z,9.681001
2023-04-15T02:14:56.988Z,9.681007
2023-04-15T02:15:56.945Z,9.680999
2023-04-15T02:16:56.973Z,9.680936
2023-04-15T02:17:57.007Z,9.681044
2023-04-15T02:18:56.928Z,9.681053
2023-04-15T02:19:56.937Z,9.681061
2023-04-15T02:20:56.910Z,9.681055
2023-04-15T02:21:56.954Z,9.680975
2023-04-15T02:22:56.922Z,9.681045
2023-04-15T02:23:56.921Z,9.681003
2023-04-15T02:24:56.905Z,9.681009
2023-04-15T02:25:56.908Z,9.681044
2023-04-15T02:26:56.885Z,9.681062
2023-04-15T02:27:56.930Z,9.681003
2023-04-15T02:28:56.879Z,9.681025
2023-04-15T02:29:56.933Z,9.681012
2023-04-15T02:30:56.871Z,9.681052
2023-04-15T02:31:56.967Z,9.681110
2023-04-15T02:32:56.922Z,9.681025
2023-04-15T02:33:56.879Z,9.681023
2023-04-15T02:34:56.867Z,9.681044
2023-04-15T02:35:56.872Z,9.681071
2023-04-15T02:36:56.853Z,9.680991
2023-04-15T02:37:56.850Z,9.680972
2023-04-15T02:38:56.839Z,9.681028
2023-04-15T02:39:56.838Z,9.681092
2023-04-15T02:40:56.838Z,9.681001
2023-04-15T02:41:56.821Z,9.681091
2023-04-15T02:42:56.808Z,9.681073
2023-04-15T02:43:56.840Z,9.681004
2023-04-15T02:44:56.815Z,9.681025
2023-04-15T02:45:56.851Z,9.681076
2023-04-15T02:46:56.816Z,9.681066
2023-04-15T02:47:56.822Z,9.681003
2023-04-15T02:48:56.792Z,9.681014
2023-04-15T02:49:56.789Z,9.681088
2023-04-15T02:50:56.795Z,9.681087
2023-04-15T02:51:56.792Z,9.681110
2023-04-15T02:52:56.801Z,9.681136
2023-04-15T02:53:56.771Z,9.681087
2023-04-15T02:54:56.751Z,9.681085
2023-04-15T02:55:56.761Z,9.681087
2023-04-15T02:56:56.766Z,9.681125
2023-04-15T02:57:56.757Z,9.681114
2023-04-15T02:58:56.785Z,9.681190
2023-04-15T02:59:56.766Z,9.681174
2023-04-15T03:00:56.768Z,9.681185
2023-04-15T03:01:56.783Z,9.681149
2023-04-15T03:02:56.883Z,9.681110
2023-04-15T03:03:56.833Z,9.681223
2023-04-15T03:04:56.723Z,9.681234
2023-04-15T03:05:56.718Z,9.681347
2023-04-15T03:06:56.711Z,9.681184
2023-04-15T03:07:56.687Z,9.680987
2023-04-15T03:08:56.698Z,9.681027
2023-04-15T03:09:56.705Z,9.681093
2023-04-15T03:10:56.684Z,9.681234
2023-04-15T03:11:56.681Z,9.681184
2023-04-15T03:12:56.680Z,9.681073
2023-04-15T03:13:56.694Z,9.681056
2023-04-15T03:14:56.643Z,9.681262
2023-04-15T03:15:56.689Z,9.681213
2023-04-15T03:16:56.651Z,9.681162
2023-04-15T03:17:56.686Z,9.681149
2023-04-15T03:18:56.623Z,9.681146
2023-04-15T03:19:56.708Z,9.680982
2023-04-15T03:20:56.625Z,9.681213
2023-04-15T03:21:56.627Z,9.680971
2023-04-15T03:22:56.623Z,9.681011
2023-04-15T03:23:56.631Z,9.680992
2023-04-15T03:24:56.617Z,9.680998
2023-04-15T03:25:56.604Z,9.681080
2023-04-15T03:26:56.591Z,9.681026
2023-04-15T03:27:56.599Z,9.680978
2023-04-15T03:28:56.592Z,9.681069
2023-04-15T03:29:56.587Z,9.681102
2023-04-15T03:30:56.586Z,9.681061
2023-04-15T03:31:56.581Z,9.681124
2023-04-15T03:32:56.621Z,9.681070
2023-04-15T03:33:56.574Z,9.681191
2023-04-15T03:34:56.555Z,9.681129
2023-04-15T03:35:56.569Z,9.680933
2023-04-15T03:36:56.555Z,9.681059
2023-04-15T03:37:56.551Z,9.681111
2023-04-15T03:38:56.522Z,9.681148
2023-04-15T03:39:56.545Z,9.681094
2023-04-15T03:40:56.551Z,9.681190
2023-04-15T03:41:56.539Z,9.681166
2023-04-15T03:42:56.494Z,9.681206
2023-04-15T03:43:56.521Z,9.681167
2023-04-15T03:44:56.491Z,9.681151
2023-04-15T03:45:56.519Z,9.681164
2023-04-15T03:46:56.513Z,9.681136
2023-04-15T03:47:57.399Z,9.681081
2023-04-15T03:48:56.497Z,9.680994
2023-04-15T03:49:56.539Z,9.681059
2023-04-15T03:50:56.460Z,9.680990
2023-04-15T03:51:56.480Z,9.681046
2023-04-15T03:52:56.458Z,9.681005
2023-04-15T03:53:56.461Z,9.681046
2023-04-15T03:54:56.444Z,9.681106
2023-04-15T03:55:56.487Z,9.681000
2023-04-15T03:56:56.437Z,9.681017
2023-04-15T03:57:56.451Z,9.681070
2023-04-15T03:58:56.427Z,9.680992
2023-04-15T03:59:56.486Z,9.681032
2023-04-15T04:00:56.421Z,9.681059
2023-04-15T04:01:56.510Z,9.681024
2023-04-15T04:02:56.582Z,9.680984
2023-04-15T04:03:56.498Z,9.680989
2023-04-15T04:04:56.397Z,9.681038
2023-04-15T04:05:56.429Z,9.681055
2023-04-15T04:06:56.384Z,9.681060
2023-04-15T04:07:56.397Z,9.681126
2023-04-15T04:08:56.403Z,9.680987
2023-04-15T04:09:56.383Z,9.680932
2023-04-15T04:10:56.373Z,9.680972
2023-04-15T04:11:56.369Z,9.680955
2023-04-15T04:12:56.377Z,9.680987
2023-04-15T04:13:56.362Z,9.681035
2023-04-15T04:14:56.330Z,9.681039
2023-04-15T04:15:56.390Z,9.681052
2023-04-15T04:16:56.370Z,9.681033
2023-04-15T04:17:56.346Z,9.681057
2023-04-15T04:18:56.329Z,9.681033
2023-04-15T04:19:56.362Z,9.681027
2023-04-15T04:20:56.307Z,9.680996
2023-04-15T04:21:56.317Z,9.681010
2023-04-15T04:22:56.296Z,9.680996
2023-04-15T04:23:56.321Z,9.680984
2023-04-15T04:24:56.287Z,9.680986
2023-04-15T04:25:56.302Z,9.680986
2023-04-15T04:26:56.290Z,9.680977
2023-04-15T04:27:56.286Z,9.681021
2023-04-15T04:28:56.281Z,9.681052
2023-04-15T04:29:56.269Z,9.681030
2023-04-15T04:30:56.284Z,9.681051
2023-04-15T04:31:56.349Z,9.681025
2023-04-15T04:32:56.295Z,9.681021
2023-04-15T04:33:56.294Z,9.681026
2023-04-15T04:34:56.230Z,9.681032
2023-04-15T04:35:56.230Z,9.681048
2023-04-15T04:36:56.236Z,9.681007
2023-04-15T04:37:56.229Z,9.680990
2023-04-15T04:38:56.257Z,9.681070
2023-04-15T04:39:56.211Z,9.681025
2023-04-15T04:40:56.200Z,9.681062
2023-04-15T04:41:56.216Z,9.681027
2023-04-15T04:42:56.196Z,9.681038
2023-04-15T04:43:56.199Z,9.681018
2023-04-15T04:44:56.208Z,9.681016
2023-04-15T04:45:56.202Z,9.681060
2023-04-15T04:46:56.176Z,9.681002
2023-04-15T04:47:56.300Z,9.680983
2023-04-15T04:48:56.163Z,9.681022
2023-04-15T04:49:56.211Z,9.681064
2023-04-15T04:50:56.134Z,9.681052
2023-04-15T04:51:56.146Z,9.681013
2023-04-15T04:52:56.130Z,9.681045
2023-04-15T04:53:56.123Z,9.681061
2023-04-15T04:54:56.103Z,9.680977
2023-04-15T04:55:56.139Z,9.681047
2023-04-15T04:56:56.107Z,9.681011
2023-04-15T04:57:56.121Z,9.681063
2023-04-15T04:58:56.117Z,9.681062
2023-04-15T04:59:56.102Z,9.681040
2023-04-15T05:00:56.078Z,9.680966
2023-04-15T05:01:56.143Z,9.680981
2023-04-15T05:02:56.172Z,9.680998
2023-04-15T05:03:56.207Z,9.681011
2023-04-15T05:04:56.054Z,9.681016
2023-04-15T05:05:56.131Z,9.681014
2023-04-15T05:06:56.043Z,9.680969
2023-04-15T05:07:56.051Z,9.681052
2023-04-15T05:08:56.032Z,9.681025
2023-04-15T05:09:56.046Z,9.680961
2023-04-15T05:10:56.041Z,9.681005
2023-04-15T05:11:56.051Z,9.681026
2023-04-15T05:12:56.021Z,9.681010
2023-04-15T05:13:56.021Z,9.681072
2023-04-15T05:14:56.042Z,9.681078
2023-04-15T05:15:56.046Z,9.681029
2023-04-15T05:16:55.986Z,9.681084
2023-04-15T05:17:56.055Z,9.680999
2023-04-15T05:18:55.989Z,9.680971
2023-04-15T05:19:56.001Z,9.681005
2023-04-15T05:20:55.998Z,9.681012
2023-04-15T05:21:55.974Z,9.681062
2023-04-15T05:22:55.961Z,9.681047
2023-04-15T05:23:55.968Z,9.681079
2023-04-15T05:24:55.984Z,9.681019
2023-04-15T05:25:55.971Z,9.680997
2023-04-15T05:26:55.953Z,9.681019
2023-04-15T05:27:55.948Z,9.681020
2023-04-15T05:28:55.939Z,9.681005
2023-04-15T05:29:55.936Z,9.681019
2023-04-15T05:30:55.922Z,9.681016
2023-04-15T05:31:55.950Z,9.681001
2023-04-15T05:32:55.953Z,9.681004
2023-04-15T05:33:55.939Z,9.681007
2023-04-15T05:34:55.905Z,9.681017
2023-04-15T05:35:55.904Z,9.680999
2023-04-15T05:36:55.876Z,9.681010
2023-04-15T05:37:55.885Z,9.681033
2023-04-15T05:38:55.891Z,9.681031
2023-04-15T05:39:55.899Z,9.681000
2023-04-15T05:40:55.853Z,9.681012
2023-04-15T05:41:55.897Z,9.681017
2023-04-15T05:42:55.848Z,9.681017
2023-04-15T05:43:55.884Z,9.680997
2023-04-15T05:44:55.836Z,9.681022
2023-04-15T05:45:55.873Z,9.680994
2023-04-15T05:46:55.832Z,9.681026
2023-04-15T05:47:55.907Z,9.681070
2023-04-15T05:48:56.625Z,9.681013
2023-04-15T05:49:55.845Z,9.681036
2023-04-15T05:51:02.821Z,9.680994
2023-04-15T05:51:55.804Z,9.681003
2023-04-15T05:52:55.799Z,9.681030
2023-04-15T05:53:55.801Z,9.681062
2023-04-15T05:54:55.773Z,9.680992
2023-04-15T05:55:55.785Z,9.681011
2023-04-15T05:56:55.784Z,9.680966
2023-04-15T05:57:55.780Z,9.681031
2023-04-15T05:58:55.788Z,9.681012
2023-04-15T05:59:55.790Z,9.681029
2023-04-15T06:00:55.746Z,9.680974
2023-04-15T06:01:55.786Z,9.680973
2023-04-15T06:02:55.839Z,9.680990
2023-04-15T06:03:55.967Z,9.680986
2023-04-15T06:04:55.758Z,9.680992
2023-04-15T06:05:55.744Z,9.680966
2023-04-15T06:06:55.718Z,9.681009
2023-04-15T06:07:55.744Z,9.681043
2023-04-15T06:08:55.736Z,9.681025
2023-04-15T06:09:55.735Z,9.681031
2023-04-15T06:10:55.700Z,9.680989
2023-04-15T06:11:55.719Z,9.680976
2023-04-15T06:12:55.679Z,9.680963
2023-04-15T06:13:55.699Z,9.680996
2023-04-15T06:14:55.696Z,9.681004
2023-04-15T06:15:55.692Z,9.681057
2023-04-15T06:16:55.701Z,9.681067
2023-04-15T06:17:55.738Z,9.681059
2023-04-15T06:18:55.660Z,9.681075
2023-04-15T06:19:55.690Z,9.681062
2023-04-15T06:20:55.666Z,9.681031
2023-04-15T06:21:55.684Z,9.680999
2023-04-15T06:22:55.658Z,9.680962
2023-04-15T06:23:55.651Z,9.680982
2023-04-15T06:24:55.634Z,9.681054
2023-04-15T06:25:55.626Z,9.681049
2023-04-15T06:26:55.611Z,9.681065
2023-04-15T06:27:55.643Z,9.681037
2023-04-15T06:28:55.610Z,9.681030
2023-04-15T06:29:55.606Z,9.681054
2023-04-15T06:30:55.584Z,9.681106
2023-04-15T06:31:55.632Z,9.681044
2023-04-15T06:32:55.646Z,9.681053
2023-04-15T06:33:55.584Z,9.681079
2023-04-15T06:34:55.573Z,9.681033
2023-04-15T06:35:55.623Z,9.681021
2023-04-15T06:36:55.570Z,9.681037
2023-04-15T06:37:55.567Z,9.681026
2023-04-15T06:38:55.551Z,9.681020
2023-04-15T06:39:55.565Z,9.680995
2023-04-15T06:40:55.558Z,9.680997
2023-04-15T06:41:55.538Z,9.681005
2023-04-15T06:42:55.513Z,9.680987
2023-04-15T06:43:55.532Z,9.681046
2023-04-15T06:44:55.522Z,9.681087
2023-04-15T06:45:55.593Z,9.681060
2023-04-15T06:46:55.537Z,9.681050
2023-04-15T06:47:55.578Z,9.681117
2023-04-15T06:48:55.483Z,9.681025
2023-04-15T06:49:55.521Z,9.681035
2023-04-15T06:50:55.471Z,9.681070
2023-04-15T06:51:55.484Z,9.681092
2023-04-15T06:52:55.489Z,9.681072
2023-04-15T06:53:55.491Z,9.681089
2023-04-15T06:54:55.457Z,9.681067
2023-04-15T06:55:55.472Z,9.680990
2023-04-15T06:56:55.458Z,9.681046
2023-04-15T06:57:55.471Z,9.681068
2023-04-15T06:58:55.428Z,9.681018
2023-04-15T06:59:55.476Z,9.681087
2023-04-15T07:00:55.464Z,9.681139
2023-04-15T07:01:55.453Z,9.681104
2023-04-15T07:02:55.473Z,9.681054
2023-04-15T07:03:55.475Z,9.681090
2023-04-15T07:04:55.758Z,9.681120
2023-04-15T07:05:55.402Z,9.681115
2023-04-15T07:06:55.407Z,9.681042
2023-04-15T07:07:55.380Z,9.681064
2023-04-15T07:08:55.433Z,9.681111
2023-04-15T07:09:55.355Z,9.681059
2023-04-15T07:10:55.375Z,9.681062
2023-04-15T07:11:55.385Z,9.681087
2023-04-15T07:12:55.381Z,9.681131
2023-04-15T07:13:55.371Z,9.681092
2023-04-15T07:14:55.385Z,9.681045
2023-04-15T07:15:55.337Z,9.681076
2023-04-15T07:16:55.370Z,9.681044
2023-04-15T07:17:55.430Z,9.680975
2023-04-15T07:18:55.337Z,9.680967
2023-04-15T07:19:55.328Z,9.681030
2023-04-15T07:20:55.354Z,9.681005
2023-04-15T07:21:55.342Z,9.680959
2023-04-15T07:22:55.340Z,9.680987
2023-04-15T07:23:55.291Z,9.681010
2023-04-15T07:24:55.311Z,9.681020
2023-04-15T07:25:55.295Z,9.681026
2023-04-15T07:26:55.301Z,9.681080
2023-04-15T07:27:55.275Z,9.681065
2023-04-15T07:28:55.278Z,9.681003
2023-04-15T07:29:55.268Z,9.681008
2023-04-15T07:30:55.288Z,9.681005
2023-04-15T07:31:55.277Z,9.681072
2023-04-15T07:32:55.326Z,9.681119
2023-04-15T07:33:55.246Z,9.681119
2023-04-15T07:34:55.262Z,9.681095
2023-04-15T07:35:55.239Z,9.681095
2023-04-15T07:36:55.262Z,9.681006
2023-04-15T07:37:55.219Z,9.681028
2023-04-15T07:38:55.239Z,9.681096
2023-04-15T07:39:55.228Z,9.681087
2023-04-15T07:40:55.240Z,9.681073
2023-04-15T07:41:55.206Z,9.681070
2023-04-15T07:42:55.211Z,9.681070
2023-04-15T07:43:55.217Z,9.681035
2023-04-15T07:44:55.229Z,9.681035
2023-04-15T07:45:55.290Z,9.681028
2023-04-15T07:46:55.222Z,9.681064
2023-04-15T07:47:55.228Z,9.681067
2023-04-15T07:48:55.189Z,9.681096
2023-04-15T07:49:55.164Z,9.681087
2023-04-15T07:50:55.183Z,9.681133
2023-04-15T07:51:55.163Z,9.681087
2023-04-15T07:52:55.187Z,9.681037
2023-04-15T07:53:55.201Z,9.681053
2023-04-15T07:54:55.145Z,9.681023
2023-04-15T07:55:55.139Z,9.681070
2023-04-15T07:56:55.164Z,9.681041
2023-04-15T07:57:55.127Z,9.681105
2023-04-15T07:58:55.130Z,9.681042
2023-04-15T07:59:55.140Z,9.681020
2023-04-15T08:00:55.116Z,9.681047
2023-04-15T08:01:55.148Z,9.681087
2023-04-15T08:02:55.241Z,9.681076
2023-04-15T08:03:55.249Z,9.681087
2023-04-15T08:04:55.161Z,9.681064
2023-04-15T08:05:55.073Z,9.681025
2023-04-15T08:06:55.100Z,9.681010
2023-04-15T08:07:55.103Z,9.681046
2023-04-15T08:08:55.101Z,9.681045
2023-04-15T08:09:55.040Z,9.681085
2023-04-15T08:10:55.105Z,9.681077
2023-04-15T08:11:55.056Z,9.681117
2023-04-15T08:12:55.100Z,9.681119
2023-04-15T08:13:55.022Z,9.681091
2023-04-15T08:14:55.031Z,9.681088
2023-04-15T08:15:55.085Z,9.681116
2023-04-15T08:16:55.043Z,9.681076
2023-04-15T08:17:55.057Z,9.681071
2023-04-15T08:18:55.004Z,9.681131
2023-04-15T08:19:54.987Z,9.681144
2023-04-15T08:20:54.993Z,9.681093
2023-04-15T08:21:55.004Z,9.681095
2023-04-15T08:22:54.984Z,9.681107
2023-04-15T08:23:54.971Z,9.681075
2023-04-15T08:24:54.973Z,9.681063
2023-04-15T08:25:54.954Z,9.681067
2023-04-15T08:26:54.971Z,9.681029
2023-04-15T08:27:54.943Z,9.681062
2023-04-15T08:28:54.952Z,9.681063
2023-04-15T08:29:54.934Z,9.681047
2023-04-15T08:30:54.944Z,9.681046
2023-04-15T08:31:55.019Z,9.681067
2023-04-15T08:32:55.020Z,9.681038
2023-04-15T08:33:54.930Z,9.681073
2023-04-15T08:34:54.911Z,9.681089
2023-04-15T08:35:54.884Z,9.681061
2023-04-15T08:36:54.928Z,9.681055
2023-04-15T08:37:54.921Z,9.681069
2023-04-15T08:38:54.937Z,9.681045
2023-04-15T08:39:54.897Z,9.681078
2023-04-15T08:40:54.924Z,9.681078
2023-04-15T08:41:54.903Z,9.681068
2023-04-15T08:42:54.918Z,9.681108
2023-04-15T08:43:54.991Z,9.681114
2023-04-15T08:44:54.949Z,9.681083
2023-04-15T08:45:54.855Z,9.681102
2023-04-15T08:46:54.862Z,9.681050
2023-04-15T08:47:54.902Z,9.681031
2023-04-15T08:48:54.852Z,9.681077
2023-04-15T08:49:54.821Z,9.681074
2023-04-15T08:50:54.821Z,9.681068
2023-04-15T08:51:54.820Z,9.681092
2023-04-15T08:52:54.812Z,9.681083
2023-04-15T08:53:54.801Z,9.681055
2023-04-15T08:54:54.815Z,9.681085
2023-04-15T08:55:54.776Z,9.681078
2023-04-15T08:56:54.891Z,9.681056
2023-04-15T08:57:54.767Z,9.681051
2023-04-15T08:58:54.844Z,9.681108
2023-04-15T08:59:54.760Z,9.681102
2023-04-15T09:00:54.793Z,9.681063
2023-04-15T09:01:54.790Z,9.681055
2023-04-15T09:02:54.831Z,9.681140
2023-04-15T09:03:54.994Z,9.681119
2023-04-15T09:04:54.752Z,9.681108
2023-04-15T09:05:54.738Z,9.681106
2023-04-15T09:06:54.795Z,9.681094
2023-04-15T09:07:54.759Z,9.681105
2023-04-15T09:08:54.791Z,9.681039
2023-04-15T09:09:54.698Z,9.681006
2023-04-15T09:10:54.728Z,9.681006
2023-04-15T09:11:54.689Z,9.680957
2023-04-15T09:12:54.732Z,9.681067
2023-04-15T09:13:54.681Z,9.681030
2023-04-15T09:14:54.713Z,9.681079
2023-04-15T09:15:54.671Z,9.681086
2023-04-15T09:16:54.740Z,9.681057
2023-04-15T09:17:54.741Z,9.681068
2023-04-15T09:18:54.699Z,9.681003
2023-04-15T09:19:54.652Z,9.681056
2023-04-15T09:20:54.677Z,9.681109
2023-04-15T09:21:57.292Z,9.681066
2023-04-15T09:22:54.648Z,9.681022
2023-04-15T09:23:54.693Z,9.681008
2023-04-15T09:24:54.634Z,9.681104
2023-04-15T09:25:54.619Z,9.681067
2023-04-15T09:26:54.642Z,9.680992
2023-04-15T09:27:54.627Z,9.681017
2023-04-15T09:28:54.605Z,9.681068
2023-04-15T09:29:54.611Z,9.681077
2023-04-15T09:30:54.631Z,9.681044
2023-04-15T09:31:54.599Z,9.681053
2023-04-15T09:32:54.650Z,9.681065
2023-04-15T09:33:54.593Z,9.680998
2023-04-15T09:34:54.625Z,9.681103
2023-04-15T09:35:54.560Z,9.681095
2023-04-15T09:36:54.574Z,9.681023
2023-04-15T09:37:54.561Z,9.681033
2023-04-15T09:38:54.550Z,9.681018
2023-04-15T09:39:54.559Z,9.681002
2023-04-15T09:40:54.563Z,9.680995
2023-04-15T09:41:54.519Z,9.681022
2023-04-15T09:42:54.550Z,9.681004
2023-04-15T09:43:54.547Z,9.681009
2023-04-15T09:44:54.532Z,9.680958
2023-04-15T09:45:54.548Z,9.681005
2023-04-15T09:46:54.526Z,9.680943
2023-04-15T09:47:55.370Z,9.680990
2023-04-15T09:48:54.501Z,9.680978
2023-04-15T09:49:54.565Z,9.680974
2023-04-15T09:50:54.471Z,9.681031
2023-04-15T09:52:04.455Z,9.681060
2023-04-15T09:52:55.474Z,9.681048
2023-04-15T09:53:54.452Z,9.681011
2023-04-15T09:54:54.457Z,9.681012
2023-04-15T09:55:54.537Z,9.681094
2023-04-15T09:56:54.448Z,9.680989
2023-04-15T09:57:54.428Z,9.681005
2023-04-15T09:58:54.441Z,9.680984
2023-04-15T09:59:54.435Z,9.680998
2023-04-15T10:00:54.431Z,9.680999
2023-04-15T10:01:54.488Z,9.681047
2023-04-15T10:02:54.527Z,9.681061
2023-04-15T10:03:54.520Z,9.680975
2023-04-15T10:04:54.417Z,9.681020
2023-04-15T10:05:54.451Z,9.680992
2023-04-15T10:06:54.414Z,9.681029
2023-04-15T10:07:54.385Z,9.681022
2023-04-15T10:08:54.396Z,9.680995
2023-04-15T10:09:54.371Z,9.681006
2023-04-15T10:10:54.391Z,9.680964
2023-04-15T10:11:54.408Z,9.680935
2023-04-15T10:12:54.386Z,9.680984
2023-04-15T10:13:54.357Z,9.681040
2023-04-15T10:14:54.379Z,9.681052
2023-04-15T10:15:54.412Z,9.681087
2023-04-15T10:16:54.346Z,9.681117
2023-04-15T10:17:54.402Z,9.681183
2023-04-15T10:18:54.358Z,9.681200
2023-04-15T10:19:54.312Z,9.681178
2023-04-15T10:20:54.325Z,9.681082
2023-04-15T10:21:54.335Z,9.680974
2023-04-15T10:22:54.321Z,9.681011
2023-04-15T10:23:54.306Z,9.681121
2023-04-15T10:24:54.330Z,9.681057
2023-04-15T10:25:54.314Z,9.681033
2023-04-15T10:26:54.318Z,9.681034
2023-04-15T10:27:54.272Z,9.681065
2023-04-15T10:28:54.280Z,9.681013
2023-04-15T10:29:54.322Z,9.681026
2023-04-15T10:30:54.308Z,9.681068
2023-04-15T10:31:54.262Z,9.681007
2023-04-15T10:32:54.400Z,9.681027
2023-04-15T10:33:54.253Z,9.681051
2023-04-15T10:34:54.709Z,9.681020
2023-04-15T10:35:54.239Z,9.681009
2023-04-15T10:36:54.246Z,9.681021
2023-04-15T10:37:54.218Z,9.681039
2023-04-15T10:38:54.266Z,9.681070
2023-04-15T10:39:54.210Z,9.681032
2023-04-15T10:40:54.243Z,9.680996
2023-04-15T10:41:54.216Z,9.681081
2023-04-15T10:42:54.217Z,9.681022
2023-04-15T10:43:54.221Z,9.681001
2023-04-15T10:44:54.217Z,9.681025
2023-04-15T10:45:54.178Z,9.681021
2023-04-15T10:46:54.277Z,9.681046
2023-04-15T10:47:54.227Z,9.681010
2023-04-15T10:48:54.182Z,9.681025
2023-04-15T10:49:54.150Z,9.681061
2023-04-15T10:50:54.165Z,9.681027
2023-04-15T10:51:54.187Z,9.680964
2023-04-15T10:52:54.216Z,9.681087
2023-04-15T10:53:54.136Z,9.681057
2023-04-15T10:54:54.140Z,9.681070
2023-04-15T10:55:54.113Z,9.681063
2023-04-15T10:56:54.122Z,9.681083
2023-04-15T10:57:54.124Z,9.681045
2023-04-15T10:58:54.189Z,9.681053
2023-04-15T10:59:54.108Z,9.681058
2023-04-15T11:00:54.130Z,9.681131
2023-04-15T11:01:54.278Z,9.681136
2023-04-15T11:02:54.217Z,9.681123
2023-04-15T11:03:54.157Z,9.681133
2023-04-15T11:04:54.220Z,9.681171
2023-04-15T11:05:54.137Z,9.681126
2023-04-15T11:06:54.087Z,9.681089
2023-04-15T11:07:54.064Z,9.681171
2023-04-15T11:08:54.072Z,9.681238
2023-04-15T11:09:54.043Z,9.681293
2023-04-15T11:10:54.147Z,9.681237
2023-04-15T11:11:54.049Z,9.681204
2023-04-15T11:12:54.041Z,9.681276
2023-04-15T11:13:54.018Z,9.681271
2023-04-15T11:14:54.039Z,9.681206
2023-04-15T11:15:54.043Z,9.681262
2023-04-15T11:16:54.019Z,9.681139
2023-04-15T11:17:54.154Z,9.681066
2023-04-15T11:18:54.034Z,9.680977
2023-04-15T11:19:53.998Z,9.681070
2023-04-15T11:20:54.022Z,9.681084
2023-04-15T11:21:53.971Z,9.681046
2023-04-15T11:23:14.152Z,9.681099
2023-04-15T11:23:54.994Z,9.681063
2023-04-15T11:24:53.970Z,9.680985
2023-04-15T11:25:54.003Z,9.681155
2023-04-15T11:26:53.966Z,9.681137
2023-04-15T11:27:53.943Z,9.680987
2023-04-15T11:28:53.953Z,9.681073
2023-04-15T11:29:53.938Z,9.681111
2023-04-15T11:30:53.946Z,9.681179
2023-04-15T11:31:53.970Z,9.681157
2023-04-15T11:32:53.962Z,9.681137
2023-04-15T11:33:53.934Z,9.681171
2023-04-15T11:34:53.938Z,9.681126
2023-04-15T11:35:53.917Z,9.681088
2023-04-15T11:36:53.940Z,9.681093
2023-04-15T11:37:53.894Z,9.681166
2023-04-15T11:38:53.924Z,9.681040
2023-04-15T11:39:53.874Z,9.681131
2023-04-15T11:40:53.903Z,9.681041
2023-04-15T11:41:53.914Z,9.681132
2023-04-15T11:42:53.903Z,9.681049
2023-04-15T11:43:53.893Z,9.681052
2023-04-15T11:44:53.881Z,9.681138